sensor_id;sensor_type;location;lat;lon;timestamp;P1;durP1;ratioP1;P2;durP2;ratioP2
34541;SDS011;20784;51.332;12.410;2022-09-12T00:00:43;15.05;;;9.75;;
34541;SDS011;20784;51.332;12.410;2022-09-12T00:03:17;12.73;;;8.95;;
34541;SDS011;20784;51.332;12.410;2022-09-12T00:05:54;14.95;;;9.02;;
34541;SDS011;20784;51.332;12.410;2022-09-12T00:08:22;17.00;;;9.55;;
34541;SDS011;20784;51.332;12.410;2022-09-12T00:11:11;15.20;;;10.68;;
34541;SDS011;20784;51.332;12.410;2022-09-12T00:13:58;16.08;;;10.25;;
34541;SDS011;20784;51.332;12.410;2022-09-12T00:16:32;14.63;;;10.43;;
34541;SDS011;20784;51.332;12.410;2022-09-12T00:19:00;15.82;;;9.27;;
34541;SDS011;20784;51.332;12.410;2022-09-12T00:21:34;15.80;;;9.60;;
34541;SDS011;20784;51.332;12.410;2022-09-12T00:24:01;14.98;;;9.65;;
34541;SDS011;20784;51.332;12.410;2022-09-12T00:32:09;15.63;;;9.52;;
34541;SDS011;20784;51.332;12.410;2022-09-12T00:34:51;17.42;;;10.55;;
34541;SDS011;20784;51.332;12.410;2022-09-12T00:37:33;13.75;;;10.18;;
34541;SDS011;20784;51.332;12.410;2022-09-12T00:40:04;18.90;;;11.35;;
34541;SDS011;20784;51.332;12.410;2022-09-12T00:42:33;18.50;;;10.55;;
34541;SDS011;20784;51.332;12.410;2022-09-12T00:45:17;16.55;;;10.30;;
34541;SDS011;20784;51.332;12.410;2022-09-12T00:51:10;17.92;;;10.60;;
34541;SDS011;20784;51.332;12.410;2022-09-12T00:53:43;14.23;;;10.57;;
34541;SDS011;20784;51.332;12.410;2022-09-12T00:56:19;15.00;;;10.25;;
34541;SDS011;20784;51.332;12.410;2022-09-12T00:58:59;18.27;;;10.68;;
34541;SDS011;20784;51.332;12.410;2022-09-12T01:01:49;19.25;;;11.23;;
34541;SDS011;20784;51.332;12.410;2022-09-12T01:04:19;15.48;;;9.73;;
34541;SDS011;20784;51.332;12.410;2022-09-12T01:06:49;17.77;;;10.18;;
34541;SDS011;20784;51.332;12.410;2022-09-12T01:09:18;16.90;;;10.20;;
34541;SDS011;20784;51.332;12.410;2022-09-12T01:11:50;16.27;;;10.32;;
34541;SDS011;20784;51.332;12.410;2022-09-12T01:14:25;17.38;;;10.75;;
34541;SDS011;20784;51.332;12.410;2022-09-12T01:16:57;13.18;;;9.93;;
34541;SDS011;20784;51.332;12.410;2022-09-12T01:31:06;19.25;;;11.27;;
34541;SDS011;20784;51.332;12.410;2022-09-12T01:34:34;14.95;;;10.98;;
34541;SDS011;20784;51.332;12.410;2022-09-12T01:40:30;18.58;;;11.75;;
34541;SDS011;20784;51.332;12.410;2022-09-12T01:46:18;16.45;;;11.43;;
34541;SDS011;20784;51.332;12.410;2022-09-12T01:58:18;17.23;;;11.65;;
34541;SDS011;20784;51.332;12.410;2022-09-12T02:00:46;19.17;;;12.35;;
34541;SDS011;20784;51.332;12.410;2022-09-12T02:03:36;17.67;;;12.82;;
34541;SDS011;20784;51.332;12.410;2022-09-12T02:06:12;23.70;;;13.13;;
34541;SDS011;20784;51.332;12.410;2022-09-12T02:08:57;18.35;;;12.15;;
34541;SDS011;20784;51.332;12.410;2022-09-12T02:11:30;20.48;;;12.65;;
34541;SDS011;20784;51.332;12.410;2022-09-12T02:14:10;21.83;;;11.95;;
34541;SDS011;20784;51.332;12.410;2022-09-12T02:16:58;17.00;;;12.38;;
34541;SDS011;20784;51.332;12.410;2022-09-12T02:20:06;17.77;;;12.85;;
34541;SDS011;20784;51.332;12.410;2022-09-12T02:22:44;22.50;;;13.32;;
34541;SDS011;20784;51.332;12.410;2022-09-12T02:25:16;19.08;;;12.65;;
34541;SDS011;20784;51.332;12.410;2022-09-12T02:28:03;19.50;;;13.15;;
34541;SDS011;20784;51.332;12.410;2022-09-12T02:30:49;18.65;;;12.20;;
34541;SDS011;20784;51.332;12.410;2022-09-12T02:33:33;21.80;;;13.75;;
34541;SDS011;20784;51.332;12.410;2022-09-12T02:39:01;19.42;;;12.80;;
34541;SDS011;20784;51.332;12.410;2022-09-12T02:41:43;17.88;;;13.05;;
34541;SDS011;20784;51.332;12.410;2022-09-12T02:44:38;19.95;;;12.73;;
34541;SDS011;20784;51.332;12.410;2022-09-12T02:47:08;18.05;;;12.48;;
34541;SDS011;20784;51.332;12.410;2022-09-12T02:52:32;19.83;;;13.95;;
34541;SDS011;20784;51.332;12.410;2022-09-12T02:55:03;20.38;;;13.68;;
34541;SDS011;20784;51.332;12.410;2022-09-12T02:57:51;20.80;;;13.50;;
34541;SDS011;20784;51.332;12.410;2022-09-12T03:00:19;19.05;;;12.80;;
34541;SDS011;20784;51.332;12.410;2022-09-12T03:06:25;19.83;;;13.55;;
34541;SDS011;20784;51.332;12.410;2022-09-12T03:09:34;21.92;;;14.07;;
34541;SDS011;20784;51.332;12.410;2022-09-12T03:14:59;19.98;;;13.65;;
34541;SDS011;20784;51.332;12.410;2022-09-12T03:24:08;20.50;;;14.10;;
34541;SDS011;20784;51.332;12.410;2022-09-12T03:26:46;24.23;;;14.55;;
34541;SDS011;20784;51.332;12.410;2022-09-12T03:29:40;22.30;;;13.93;;
34541;SDS011;20784;51.332;12.410;2022-09-12T03:32:44;21.67;;;13.57;;
34541;SDS011;20784;51.332;12.410;2022-09-12T03:35:55;20.75;;;14.38;;
34541;SDS011;20784;51.332;12.410;2022-09-12T03:38:44;20.83;;;14.02;;
34541;SDS011;20784;51.332;12.410;2022-09-12T03:41:12;25.42;;;15.65;;
34541;SDS011;20784;51.332;12.410;2022-09-12T03:43:44;23.25;;;15.45;;
34541;SDS011;20784;51.332;12.410;2022-09-12T03:46:14;23.52;;;15.00;;
34541;SDS011;20784;51.332;12.410;2022-09-12T03:48:42;25.80;;;14.77;;
34541;SDS011;20784;51.332;12.410;2022-09-12T03:51:10;22.45;;;15.20;;
34541;SDS011;20784;51.332;12.410;2022-09-12T03:56:38;23.58;;;14.38;;
34541;SDS011;20784;51.332;12.410;2022-09-12T04:01:41;23.20;;;14.88;;
34541;SDS011;20784;51.332;12.410;2022-09-12T04:04:07;22.17;;;14.70;;
34541;SDS011;20784;51.332;12.410;2022-09-12T04:06:36;22.13;;;15.23;;
34541;SDS011;20784;51.332;12.410;2022-09-12T04:09:24;23.67;;;15.70;;
34541;SDS011;20784;51.332;12.410;2022-09-12T04:12:02;22.55;;;15.63;;
34541;SDS011;20784;51.332;12.410;2022-09-12T04:14:28;27.23;;;15.15;;
34541;SDS011;20784;51.332;12.410;2022-09-12T04:16:56;25.27;;;16.60;;
34541;SDS011;20784;51.332;12.410;2022-09-12T04:19:22;21.02;;;14.95;;
34541;SDS011;20784;51.332;12.410;2022-09-12T04:21:49;22.17;;;14.60;;
34541;SDS011;20784;51.332;12.410;2022-09-12T04:24:30;26.95;;;15.32;;
34541;SDS011;20784;51.332;12.410;2022-09-12T04:26:58;31.00;;;16.52;;
34541;SDS011;20784;51.332;12.410;2022-09-12T04:29:24;25.70;;;15.80;;
34541;SDS011;20784;51.332;12.410;2022-09-12T04:31:50;27.05;;;15.60;;
34541;SDS011;20784;51.332;12.410;2022-09-12T04:34:15;23.48;;;15.43;;
34541;SDS011;20784;51.332;12.410;2022-09-12T04:36:42;21.90;;;15.65;;
34541;SDS011;20784;51.332;12.410;2022-09-12T04:39:10;27.90;;;15.88;;
34541;SDS011;20784;51.332;12.410;2022-09-12T04:41:37;27.48;;;16.58;;
34541;SDS011;20784;51.332;12.410;2022-09-12T04:44:05;25.58;;;16.25;;
34541;SDS011;20784;51.332;12.410;2022-09-12T04:46:39;27.25;;;16.88;;
34541;SDS011;20784;51.332;12.410;2022-09-12T04:49:09;23.20;;;15.88;;
34541;SDS011;20784;51.332;12.410;2022-09-12T04:51:35;26.40;;;16.80;;
34541;SDS011;20784;51.332;12.410;2022-09-12T04:54:03;25.15;;;16.25;;
34541;SDS011;20784;51.332;12.410;2022-09-12T04:56:36;23.45;;;16.73;;
34541;SDS011;20784;51.332;12.410;2022-09-12T04:59:03;22.05;;;16.02;;
34541;SDS011;20784;51.332;12.410;2022-09-12T05:01:32;26.45;;;16.60;;
34541;SDS011;20784;51.332;12.410;2022-09-12T05:04:01;25.38;;;16.85;;
34541;SDS011;20784;51.332;12.410;2022-09-12T05:06:36;25.27;;;16.85;;
34541;SDS011;20784;51.332;12.410;2022-09-12T05:09:02;24.17;;;16.63;;
34541;SDS011;20784;51.332;12.410;2022-09-12T05:11:31;28.85;;;16.40;;
34541;SDS011;20784;51.332;12.410;2022-09-12T05:14:01;23.45;;;15.70;;
34541;SDS011;20784;51.332;12.410;2022-09-12T05:16:28;24.70;;;16.85;;
34541;SDS011;20784;51.332;12.410;2022-09-12T05:18:58;22.23;;;16.00;;
34541;SDS011;20784;51.332;12.410;2022-09-12T05:21:27;24.42;;;17.02;;
34541;SDS011;20784;51.332;12.410;2022-09-12T05:23:53;26.20;;;16.42;;
34541;SDS011;20784;51.332;12.410;2022-09-12T05:26:20;22.13;;;15.48;;
34541;SDS011;20784;51.332;12.410;2022-09-12T05:28:47;24.98;;;16.33;;
34541;SDS011;20784;51.332;12.410;2022-09-12T05:31:15;25.70;;;15.77;;
34541;SDS011;20784;51.332;12.410;2022-09-12T05:36:13;24.15;;;15.85;;
34541;SDS011;20784;51.332;12.410;2022-09-12T05:38:42;23.58;;;16.33;;
34541;SDS011;20784;51.332;12.410;2022-09-12T05:41:08;30.48;;;16.80;;
34541;SDS011;20784;51.332;12.410;2022-09-12T05:43:36;23.05;;;16.05;;
34541;SDS011;20784;51.332;12.410;2022-09-12T05:46:42;25.27;;;16.92;;
34541;SDS011;20784;51.332;12.410;2022-09-12T05:49:10;25.02;;;15.77;;
34541;SDS011;20784;51.332;12.410;2022-09-12T05:51:38;28.70;;;16.65;;
34541;SDS011;20784;51.332;12.410;2022-09-12T05:54:09;26.67;;;16.40;;
34541;SDS011;20784;51.332;12.410;2022-09-12T05:56:36;26.70;;;17.05;;
34541;SDS011;20784;51.332;12.410;2022-09-12T05:59:05;25.85;;;16.58;;
34541;SDS011;20784;51.332;12.410;2022-09-12T06:01:37;27.02;;;16.92;;
34541;SDS011;20784;51.332;12.410;2022-09-12T06:04:06;22.80;;;15.38;;
34541;SDS011;20784;51.332;12.410;2022-09-12T06:06:39;28.15;;;17.08;;
34541;SDS011;20784;51.332;12.410;2022-09-12T06:09:07;23.15;;;16.50;;
34541;SDS011;20784;51.332;12.410;2022-09-12T06:11:38;25.65;;;16.38;;
34541;SDS011;20784;51.332;12.410;2022-09-12T06:14:11;24.88;;;17.33;;
34541;SDS011;20784;51.332;12.410;2022-09-12T06:16:50;29.98;;;18.15;;
34541;SDS011;20784;51.332;12.410;2022-09-12T06:19:17;24.38;;;16.33;;
34541;SDS011;20784;51.332;12.410;2022-09-12T06:21:49;24.35;;;16.55;;
34541;SDS011;20784;51.332;12.410;2022-09-12T06:24:21;28.05;;;17.40;;
34541;SDS011;20784;51.332;12.410;2022-09-12T06:26:50;25.13;;;16.52;;
34541;SDS011;20784;51.332;12.410;2022-09-12T06:29:18;29.58;;;16.88;;
34541;SDS011;20784;51.332;12.410;2022-09-12T06:31:47;25.00;;;16.42;;
34541;SDS011;20784;51.332;12.410;2022-09-12T06:34:30;28.45;;;18.08;;
34541;SDS011;20784;51.332;12.410;2022-09-12T06:37:00;23.52;;;15.93;;
34541;SDS011;20784;51.332;12.410;2022-09-12T06:39:34;26.45;;;16.70;;
34541;SDS011;20784;51.332;12.410;2022-09-12T06:42:15;28.42;;;17.52;;
34541;SDS011;20784;51.332;12.410;2022-09-12T06:44:46;25.00;;;15.95;;
34541;SDS011;20784;51.332;12.410;2022-09-12T06:47:15;26.02;;;16.38;;
34541;SDS011;20784;51.332;12.410;2022-09-12T06:49:41;24.45;;;16.58;;
34541;SDS011;20784;51.332;12.410;2022-09-12T06:52:09;29.48;;;16.10;;
34541;SDS011;20784;51.332;12.410;2022-09-12T06:54:40;25.90;;;17.27;;
34541;SDS011;20784;51.332;12.410;2022-09-12T06:57:13;25.90;;;16.75;;
34541;SDS011;20784;51.332;12.410;2022-09-12T06:59:39;27.67;;;17.08;;
34541;SDS011;20784;51.332;12.410;2022-09-12T07:02:07;22.48;;;15.50;;
34541;SDS011;20784;51.332;12.410;2022-09-12T07:04:35;20.38;;;15.02;;
34541;SDS011;20784;51.332;12.410;2022-09-12T07:07:01;20.48;;;14.70;;
34541;SDS011;20784;51.332;12.410;2022-09-12T07:09:32;20.40;;;14.55;;
34541;SDS011;20784;51.332;12.410;2022-09-12T07:12:01;28.88;;;16.23;;
34541;SDS011;20784;51.332;12.410;2022-09-12T07:14:28;27.02;;;15.23;;
34541;SDS011;20784;51.332;12.410;2022-09-12T07:16:54;21.55;;;13.90;;
34541;SDS011;20784;51.332;12.410;2022-09-12T07:19:20;24.40;;;14.88;;
34541;SDS011;20784;51.332;12.410;2022-09-12T07:21:46;21.20;;;15.05;;
34541;SDS011;20784;51.332;12.410;2022-09-12T07:24:15;18.35;;;14.00;;
34541;SDS011;20784;51.332;12.410;2022-09-12T07:26:50;27.42;;;14.57;;
34541;SDS011;20784;51.332;12.410;2022-09-12T07:29:21;20.80;;;13.80;;
34541;SDS011;20784;51.332;12.410;2022-09-12T07:31:47;23.02;;;13.85;;
34541;SDS011;20784;51.332;12.410;2022-09-12T07:34:16;24.88;;;14.50;;
34541;SDS011;20784;51.332;12.410;2022-09-12T07:36:44;22.33;;;13.52;;
34541;SDS011;20784;51.332;12.410;2022-09-12T07:39:10;22.10;;;14.60;;
34541;SDS011;20784;51.332;12.410;2022-09-12T07:41:36;21.45;;;14.55;;
34541;SDS011;20784;51.332;12.410;2022-09-12T07:44:02;21.20;;;13.73;;
34541;SDS011;20784;51.332;12.410;2022-09-12T07:46:30;19.48;;;13.40;;
34541;SDS011;20784;51.332;12.410;2022-09-12T07:48:59;19.58;;;13.90;;
34541;SDS011;20784;51.332;12.410;2022-09-12T07:51:25;21.40;;;14.02;;
34541;SDS011;20784;51.332;12.410;2022-09-12T07:53:54;24.25;;;13.85;;
34541;SDS011;20784;51.332;12.410;2022-09-12T07:56:20;19.63;;;13.70;;
34541;SDS011;20784;51.332;12.410;2022-09-12T07:58:52;19.05;;;14.05;;
34541;SDS011;20784;51.332;12.410;2022-09-12T08:01:20;20.80;;;13.20;;
34541;SDS011;20784;51.332;12.410;2022-09-12T08:03:51;20.27;;;14.02;;
34541;SDS011;20784;51.332;12.410;2022-09-12T08:06:20;19.52;;;14.63;;
34541;SDS011;20784;51.332;12.410;2022-09-12T08:08:53;21.30;;;12.57;;
34541;SDS011;20784;51.332;12.410;2022-09-12T08:11:20;20.13;;;12.43;;
34541;SDS011;20784;51.332;12.410;2022-09-12T08:13:50;18.60;;;12.27;;
34541;SDS011;20784;51.332;12.410;2022-09-12T08:16:18;17.25;;;11.85;;
34541;SDS011;20784;51.332;12.410;2022-09-12T08:18:45;17.13;;;10.77;;
34541;SDS011;20784;51.332;12.410;2022-09-12T08:21:13;15.07;;;10.23;;
34541;SDS011;20784;51.332;12.410;2022-09-12T08:23:45;15.27;;;10.48;;
34541;SDS011;20784;51.332;12.410;2022-09-12T08:26:14;16.30;;;10.65;;
34541;SDS011;20784;51.332;12.410;2022-09-12T08:28:42;15.02;;;9.50;;
34541;SDS011;20784;51.332;12.410;2022-09-12T08:31:12;17.70;;;9.43;;
34541;SDS011;20784;51.332;12.410;2022-09-12T08:33:39;12.55;;;8.75;;
34541;SDS011;20784;51.332;12.410;2022-09-12T08:36:09;15.70;;;9.07;;
34541;SDS011;20784;51.332;12.410;2022-09-12T08:38:38;10.57;;;7.50;;
34541;SDS011;20784;51.332;12.410;2022-09-12T08:44:00;17.08;;;9.10;;
34541;SDS011;20784;51.332;12.410;2022-09-12T08:52:26;10.60;;;6.95;;
34541;SDS011;20784;51.332;12.410;2022-09-12T08:55:04;9.07;;;5.90;;
34541;SDS011;20784;51.332;12.410;2022-09-12T08:57:33;9.93;;;5.25;;
34541;SDS011;20784;51.332;12.410;2022-09-12T08:59:58;7.18;;;5.35;;
34541;SDS011;20784;51.332;12.410;2022-09-12T09:05:36;7.57;;;5.90;;
34541;SDS011;20784;51.332;12.410;2022-09-12T09:08:15;11.90;;;6.30;;
34541;SDS011;20784;51.332;12.410;2022-09-12T09:13:56;10.05;;;6.65;;
34541;SDS011;20784;51.332;12.410;2022-09-12T09:17:03;11.68;;;5.55;;
34541;SDS011;20784;51.332;12.410;2022-09-12T09:19:39;7.90;;;5.85;;
34541;SDS011;20784;51.332;12.410;2022-09-12T09:22:15;8.02;;;5.18;;
34541;SDS011;20784;51.332;12.410;2022-09-12T09:24:54;9.82;;;6.28;;
34541;SDS011;20784;51.332;12.410;2022-09-12T09:27:30;11.57;;;5.88;;
34541;SDS011;20784;51.332;12.410;2022-09-12T09:30:02;9.40;;;4.97;;
34541;SDS011;20784;51.332;12.410;2022-09-12T09:32:33;7.65;;;5.68;;
34541;SDS011;20784;51.332;12.410;2022-09-12T09:35:17;7.20;;;4.43;;
34541;SDS011;20784;51.332;12.410;2022-09-12T09:37:46;7.82;;;5.68;;
34541;SDS011;20784;51.332;12.410;2022-09-12T09:40:36;7.38;;;5.20;;
34541;SDS011;20784;51.332;12.410;2022-09-12T09:43:20;6.72;;;4.70;;
34541;SDS011;20784;51.332;12.410;2022-09-12T09:45:48;5.50;;;4.68;;
34541;SDS011;20784;51.332;12.410;2022-09-12T09:48:20;6.65;;;4.82;;
34541;SDS011;20784;51.332;12.410;2022-09-12T09:50:48;6.93;;;4.55;;
34541;SDS011;20784;51.332;12.410;2022-09-12T09:56:08;6.55;;;4.50;;
34541;SDS011;20784;51.332;12.410;2022-09-12T09:58:46;7.10;;;4.60;;
34541;SDS011;20784;51.332;12.410;2022-09-12T10:01:13;7.95;;;4.50;;
34541;SDS011;20784;51.332;12.410;2022-09-12T10:03:46;10.05;;;4.35;;
34541;SDS011;20784;51.332;12.410;2022-09-12T10:11:57;5.85;;;3.90;;
34541;SDS011;20784;51.332;12.410;2022-09-12T10:14:27;6.03;;;3.67;;
34541;SDS011;20784;51.332;12.410;2022-09-12T10:16:56;7.30;;;3.27;;
34541;SDS011;20784;51.332;12.410;2022-09-12T10:19:23;3.40;;;3.00;;
34541;SDS011;20784;51.332;12.410;2022-09-12T10:21:59;4.72;;;3.10;;
34541;SDS011;20784;51.332;12.410;2022-09-12T10:24:27;4.43;;;2.83;;
34541;SDS011;20784;51.332;12.410;2022-09-12T10:29:39;4.70;;;2.17;;
34541;SDS011;20784;51.332;12.410;2022-09-12T10:32:12;3.67;;;2.35;;
34541;SDS011;20784;51.332;12.410;2022-09-12T10:34:47;5.82;;;2.80;;
34541;SDS011;20784;51.332;12.410;2022-09-12T10:39:48;8.00;;;2.88;;
34541;SDS011;20784;51.332;12.410;2022-09-12T10:42:43;3.17;;;2.42;;
34541;SDS011;20784;51.332;12.410;2022-09-12T10:45:44;4.22;;;2.33;;
34541;SDS011;20784;51.332;12.410;2022-09-12T10:51:12;3.75;;;2.38;;
34541;SDS011;20784;51.332;12.410;2022-09-12T10:53:48;3.20;;;2.13;;
34541;SDS011;20784;51.332;12.410;2022-09-12T10:56:20;5.65;;;1.88;;
34541;SDS011;20784;51.332;12.410;2022-09-12T11:01:43;6.60;;;2.67;;
34541;SDS011;20784;51.332;12.410;2022-09-12T11:04:40;3.30;;;2.00;;
34541;SDS011;20784;51.332;12.410;2022-09-12T11:15:24;3.75;;;2.47;;
34541;SDS011;20784;51.332;12.410;2022-09-12T11:18:02;3.45;;;1.88;;
34541;SDS011;20784;51.332;12.410;2022-09-12T11:29:37;2.88;;;1.70;;
34541;SDS011;20784;51.332;12.410;2022-09-12T11:40:53;3.45;;;2.03;;
34541;SDS011;20784;51.332;12.410;2022-09-12T11:43:39;3.17;;;2.33;;
34541;SDS011;20784;51.332;12.410;2022-09-12T11:46:19;3.45;;;1.67;;
34541;SDS011;20784;51.332;12.410;2022-09-12T11:49:03;3.38;;;2.05;;
34541;SDS011;20784;51.332;12.410;2022-09-12T11:51:52;2.33;;;1.70;;
34541;SDS011;20784;51.332;12.410;2022-09-12T11:57:13;3.75;;;1.60;;
34541;SDS011;20784;51.332;12.410;2022-09-12T11:59:49;2.28;;;1.60;;
34541;SDS011;20784;51.332;12.410;2022-09-12T12:02:27;1.80;;;1.60;;
34541;SDS011;20784;51.332;12.410;2022-09-12T12:05:01;2.22;;;1.60;;
34541;SDS011;20784;51.332;12.410;2022-09-12T12:07:33;3.75;;;2.17;;
34541;SDS011;20784;51.332;12.410;2022-09-12T12:10:06;1.70;;;1.60;;
34541;SDS011;20784;51.332;12.410;2022-09-12T12:12:45;3.53;;;1.92;;
34541;SDS011;20784;51.332;12.410;2022-09-12T12:15:14;2.70;;;2.00;;
34541;SDS011;20784;51.332;12.410;2022-09-12T12:17:42;3.72;;;2.00;;
34541;SDS011;20784;51.332;12.410;2022-09-12T12:38:43;3.90;;;1.90;;
34541;SDS011;20784;51.332;12.410;2022-09-12T12:43:43;2.22;;;1.52;;
34541;SDS011;20784;51.332;12.410;2022-09-12T12:46:16;3.33;;;2.20;;
34541;SDS011;20784;51.332;12.410;2022-09-12T12:54:29;4.00;;;1.90;;
34541;SDS011;20784;51.332;12.410;2022-09-12T12:57:05;2.78;;;1.83;;
34541;SDS011;20784;51.332;12.410;2022-09-12T12:59:50;2.45;;;1.90;;
34541;SDS011;20784;51.332;12.410;2022-09-12T13:02:21;2.88;;;1.70;;
34541;SDS011;20784;51.332;12.410;2022-09-12T13:04:51;4.68;;;1.80;;
34541;SDS011;20784;51.332;12.410;2022-09-12T13:07:28;2.47;;;1.70;;
34541;SDS011;20784;51.332;12.410;2022-09-12T13:10:02;2.95;;;1.80;;
34541;SDS011;20784;51.332;12.410;2022-09-12T13:12:31;5.57;;;1.70;;
34541;SDS011;20784;51.332;12.410;2022-09-12T13:15:03;5.15;;;2.08;;
34541;SDS011;20784;51.332;12.410;2022-09-12T13:18:09;4.20;;;2.15;;
34541;SDS011;20784;51.332;12.410;2022-09-12T13:20:43;3.00;;;1.90;;
34541;SDS011;20784;51.332;12.410;2022-09-12T13:23:48;2.88;;;2.20;;
34541;SDS011;20784;51.332;12.410;2022-09-12T13:26:23;4.20;;;1.90;;
34541;SDS011;20784;51.332;12.410;2022-09-12T13:35:09;3.03;;;2.08;;
34541;SDS011;20784;51.332;12.410;2022-09-12T13:40:44;2.22;;;1.75;;
34541;SDS011;20784;51.332;12.410;2022-09-12T13:43:34;5.38;;;1.90;;
34541;SDS011;20784;51.332;12.410;2022-09-12T13:46:05;5.90;;;2.55;;
34541;SDS011;20784;51.332;12.410;2022-09-12T13:48:46;3.35;;;2.50;;
34541;SDS011;20784;51.332;12.410;2022-09-12T13:51:24;2.50;;;2.20;;
34541;SDS011;20784;51.332;12.410;2022-09-12T13:53:53;4.43;;;2.45;;
34541;SDS011;20784;51.332;12.410;2022-09-12T13:56:25;3.42;;;2.10;;
34541;SDS011;20784;51.332;12.410;2022-09-12T13:58:55;9.25;;;2.60;;
34541;SDS011;20784;51.332;12.410;2022-09-12T14:01:40;3.47;;;2.10;;
34541;SDS011;20784;51.332;12.410;2022-09-12T14:04:14;3.57;;;2.87;;
34541;SDS011;20784;51.332;12.410;2022-09-12T14:07:22;2.90;;;2.40;;
34541;SDS011;20784;51.332;12.410;2022-09-12T14:13:02;3.65;;;2.15;;
34541;SDS011;20784;51.332;12.410;2022-09-12T14:15:34;4.65;;;2.30;;
34541;SDS011;20784;51.332;12.410;2022-09-12T14:18:02;3.15;;;2.47;;
34541;SDS011;20784;51.332;12.410;2022-09-12T14:23:17;4.28;;;2.30;;
34541;SDS011;20784;51.332;12.410;2022-09-12T14:25:58;8.32;;;2.33;;
34541;SDS011;20784;51.332;12.410;2022-09-12T14:28:26;6.38;;;2.53;;
34541;SDS011;20784;51.332;12.410;2022-09-12T14:31:04;6.05;;;2.38;;
34541;SDS011;20784;51.332;12.410;2022-09-12T14:33:50;5.60;;;2.35;;
34541;SDS011;20784;51.332;12.410;2022-09-12T14:36:21;5.20;;;2.35;;
34541;SDS011;20784;51.332;12.410;2022-09-12T14:38:58;3.20;;;2.42;;
34541;SDS011;20784;51.332;12.410;2022-09-12T14:41:28;3.28;;;2.60;;
34541;SDS011;20784;51.332;12.410;2022-09-12T14:43:58;2.78;;;2.22;;
34541;SDS011;20784;51.332;12.410;2022-09-12T14:46:35;4.10;;;2.30;;
34541;SDS011;20784;51.332;12.410;2022-09-12T14:51:57;2.88;;;2.13;;
34541;SDS011;20784;51.332;12.410;2022-09-12T14:54:35;3.60;;;2.08;;
34541;SDS011;20784;51.332;12.410;2022-09-12T14:57:16;2.90;;;1.85;;
34541;SDS011;20784;51.332;12.410;2022-09-12T14:59:51;6.15;;;2.20;;
34541;SDS011;20784;51.332;12.410;2022-09-12T15:04:48;4.65;;;2.20;;
34541;SDS011;20784;51.332;12.410;2022-09-12T15:07:36;4.70;;;3.10;;
34541;SDS011;20784;51.332;12.410;2022-09-12T15:10:20;2.25;;;1.92;;
34541;SDS011;20784;51.332;12.410;2022-09-12T15:13:09;3.92;;;2.33;;
34541;SDS011;20784;51.332;12.410;2022-09-12T15:15:41;6.05;;;2.70;;
34541;SDS011;20784;51.332;12.410;2022-09-12T15:18:09;5.32;;;2.95;;
34541;SDS011;20784;51.332;12.410;2022-09-12T15:20:35;6.60;;;2.30;;
34541;SDS011;20784;51.332;12.410;2022-09-12T15:23:03;5.13;;;2.70;;
34541;SDS011;20784;51.332;12.410;2022-09-12T15:25:32;3.35;;;2.67;;
34541;SDS011;20784;51.332;12.410;2022-09-12T15:28:00;3.42;;;2.28;;
34541;SDS011;20784;51.332;12.410;2022-09-12T15:30:25;5.07;;;2.30;;
34541;SDS011;20784;51.332;12.410;2022-09-12T15:32:51;5.82;;;2.40;;
34541;SDS011;20784;51.332;12.410;2022-09-12T15:35:18;3.70;;;2.22;;
34541;SDS011;20784;51.332;12.410;2022-09-12T15:37:47;10.32;;;3.72;;
34541;SDS011;20784;51.332;12.410;2022-09-12T15:40:16;3.03;;;2.60;;
34541;SDS011;20784;51.332;12.410;2022-09-12T15:42:44;4.75;;;2.70;;
34541;SDS011;20784;51.332;12.410;2022-09-12T15:47:51;31.67;;;20.95;;
34541;SDS011;20784;51.332;12.410;2022-09-12T15:50:17;7.60;;;4.25;;
34541;SDS011;20784;51.332;12.410;2022-09-12T15:55:51;9.18;;;3.63;;
34541;SDS011;20784;51.332;12.410;2022-09-12T15:58:22;6.80;;;3.10;;
34541;SDS011;20784;51.332;12.410;2022-09-12T16:00:56;3.63;;;2.42;;
34541;SDS011;20784;51.332;12.410;2022-09-12T16:03:34;4.50;;;2.60;;
34541;SDS011;20784;51.332;12.410;2022-09-12T16:06:29;4.55;;;3.25;;
34541;SDS011;20784;51.332;12.410;2022-09-12T16:09:03;6.60;;;2.50;;
34541;SDS011;20784;51.332;12.410;2022-09-12T16:11:36;4.35;;;2.33;;
34541;SDS011;20784;51.332;12.410;2022-09-12T16:14:12;4.85;;;2.25;;
34541;SDS011;20784;51.332;12.410;2022-09-12T16:17:11;3.15;;;2.13;;
34541;SDS011;20784;51.332;12.410;2022-09-12T16:19:50;3.17;;;2.57;;
34541;SDS011;20784;51.332;12.410;2022-09-12T16:22:23;4.05;;;2.30;;
34541;SDS011;20784;51.332;12.410;2022-09-12T16:24:51;2.22;;;1.88;;
34541;SDS011;20784;51.332;12.410;2022-09-12T16:27:19;5.20;;;2.60;;
34541;SDS011;20784;51.332;12.410;2022-09-12T16:29:45;5.18;;;2.40;;
34541;SDS011;20784;51.332;12.410;2022-09-12T16:32:16;2.43;;;1.73;;
34541;SDS011;20784;51.332;12.410;2022-09-12T16:34:46;3.97;;;2.50;;
34541;SDS011;20784;51.332;12.410;2022-09-12T16:37:13;2.42;;;2.08;;
34541;SDS011;20784;51.332;12.410;2022-09-12T16:39:46;3.50;;;2.07;;
34541;SDS011;20784;51.332;12.410;2022-09-12T16:42:21;3.55;;;2.58;;
34541;SDS011;20784;51.332;12.410;2022-09-12T16:44:59;4.72;;;2.33;;
34541;SDS011;20784;51.332;12.410;2022-09-12T16:47:25;3.85;;;2.17;;
34541;SDS011;20784;51.332;12.410;2022-09-12T16:50:07;5.07;;;2.20;;
34541;SDS011;20784;51.332;12.410;2022-09-12T16:52:35;4.90;;;2.45;;
34541;SDS011;20784;51.332;12.410;2022-09-12T16:55:01;5.35;;;2.50;;
34541;SDS011;20784;51.332;12.410;2022-09-12T16:57:30;5.35;;;2.47;;
34541;SDS011;20784;51.332;12.410;2022-09-12T17:00:00;4.00;;;2.47;;
34541;SDS011;20784;51.332;12.410;2022-09-12T17:02:35;4.40;;;2.72;;
34541;SDS011;20784;51.332;12.410;2022-09-12T17:05:08;3.28;;;2.20;;
34541;SDS011;20784;51.332;12.410;2022-09-12T17:10:18;4.75;;;1.95;;
34541;SDS011;20784;51.332;12.410;2022-09-12T17:12:44;3.60;;;2.20;;
34541;SDS011;20784;51.332;12.410;2022-09-12T17:15:12;6.75;;;2.35;;
34541;SDS011;20784;51.332;12.410;2022-09-12T17:17:40;3.03;;;2.33;;
34541;SDS011;20784;51.332;12.410;2022-09-12T17:20:25;4.68;;;2.80;;
34541;SDS011;20784;51.332;12.410;2022-09-12T17:22:50;8.15;;;2.95;;
34541;SDS011;20784;51.332;12.410;2022-09-12T17:25:18;6.50;;;3.75;;
34541;SDS011;20784;51.332;12.410;2022-09-12T17:27:44;5.40;;;2.90;;
34541;SDS011;20784;51.332;12.410;2022-09-12T17:30:12;6.95;;;3.50;;
34541;SDS011;20784;51.332;12.410;2022-09-12T17:32:38;3.65;;;2.85;;
34541;SDS011;20784;51.332;12.410;2022-09-12T17:35:04;6.63;;;3.30;;
34541;SDS011;20784;51.332;12.410;2022-09-12T17:37:33;4.85;;;2.83;;
34541;SDS011;20784;51.332;12.410;2022-09-12T17:39:59;6.95;;;2.92;;
34541;SDS011;20784;51.332;12.410;2022-09-12T17:42:24;3.75;;;2.58;;
34541;SDS011;20784;51.332;12.410;2022-09-12T17:44:50;5.68;;;2.30;;
34541;SDS011;20784;51.332;12.410;2022-09-12T17:47:15;4.38;;;2.40;;
34541;SDS011;20784;51.332;12.410;2022-09-12T17:49:44;7.15;;;2.30;;
34541;SDS011;20784;51.332;12.410;2022-09-12T17:52:11;6.97;;;3.20;;
34541;SDS011;20784;51.332;12.410;2022-09-12T17:54:37;5.90;;;2.83;;
34541;SDS011;20784;51.332;12.410;2022-09-12T17:57:03;7.10;;;6.03;;
34541;SDS011;20784;51.332;12.410;2022-09-12T17:59:29;9.88;;;5.50;;